createdAt,value
2022-08-10T00:01:11.769Z,20.5
2022-08-10T00:04:23.919Z,20.4
2022-08-10T00:07:36.056Z,20.3
2022-08-10T00:10:48.206Z,20.3
2022-08-10T00:14:00.358Z,20.2
2022-08-10T00:17:12.509Z,20.1
2022-08-10T00:20:24.664Z,20
2022-08-10T00:23:36.819Z,20
2022-08-10T00:26:48.974Z,19.9
2022-08-10T00:30:00.122Z,19.9
2022-08-10T00:33:12.274Z,19.9
2022-08-10T00:36:24.427Z,19.8
2022-08-10T00:39:36.574Z,19.7
2022-08-10T00:42:48.722Z,19.7
2022-08-10T00:46:00.879Z,19.7
2022-08-10T00:49:13.035Z,19.7
2022-08-10T00:52:24.205Z,19.7
2022-08-10T00:55:35.370Z,19.7
2022-08-10T00:58:46.546Z,19.6
2022-08-10T01:01:57.718Z,19.6
2022-08-10T01:05:09.861Z,19.6
2022-08-10T01:08:22.013Z,19.5
2022-08-10T01:11:34.161Z,19.5
2022-08-10T01:14:46.310Z,19.5
2022-08-10T01:17:58.465Z,19.5
2022-08-10T01:21:10.611Z,19.4
2022-08-10T01:24:22.760Z,19.4
2022-08-10T01:27:34.908Z,19.4
2022-08-10T01:30:47.064Z,19.3
2022-08-10T01:33:59.218Z,19.2
2022-08-10T01:37:11.371Z,19.1
2022-08-10T01:40:23.509Z,19.1
2022-08-10T01:43:34.669Z,19.1
2022-08-10T01:46:46.828Z,19
2022-08-10T01:49:58.989Z,18.9
2022-08-10T01:53:11.132Z,18.9
2022-08-10T01:56:23.272Z,18.8
2022-08-10T01:59:35.428Z,18.8
2022-08-10T02:02:47.576Z,18.8
2022-08-10T02:05:58.766Z,18.8
2022-08-10T02:09:09.919Z,18.7
2022-08-10T02:12:22.068Z,18.7
2022-08-10T02:15:34.214Z,18.6
2022-08-10T02:18:46.370Z,18.6
2022-08-10T02:21:58.515Z,18.5
2022-08-10T02:25:10.679Z,18.5
2022-08-10T02:28:22.825Z,18.5
2022-08-10T02:31:34.969Z,18.5
2022-08-10T02:34:47.123Z,18.4
2022-08-10T02:37:59.269Z,18.4
2022-08-10T02:41:11.429Z,18.3
2022-08-10T02:44:23.570Z,18.3
2022-08-10T02:47:35.732Z,18.3
2022-08-10T02:50:46.893Z,18.3
2022-08-10T02:53:59.047Z,18.3
2022-08-10T02:57:11.256Z,18.2
2022-08-10T03:00:23.388Z,18.2
2022-08-10T03:03:35.552Z,18.2
2022-08-10T03:06:47.704Z,18.2
2022-08-10T03:09:59.846Z,18.1
2022-08-10T03:13:11.025Z,18.1
2022-08-10T03:16:22.196Z,18.1
2022-08-10T03:19:33.365Z,18
2022-08-10T03:22:44.537Z,18
2022-08-10T03:25:55.708Z,18
2022-08-10T03:29:06.887Z,18
2022-08-10T03:32:19.035Z,17.9
2022-08-10T03:35:31.178Z,17.9
2022-08-10T03:38:43.338Z,17.9
2022-08-10T03:41:55.484Z,17.9
2022-08-10T03:45:07.638Z,17.8
2022-08-10T03:48:19.774Z,17.8
2022-08-10T03:51:31.926Z,17.8
2022-08-10T03:54:44.084Z,17.8
2022-08-10T03:57:56.235Z,17.8
2022-08-10T04:01:08.389Z,17.8
2022-08-10T04:04:20.530Z,17.7
2022-08-10T04:07:32.690Z,17.7
2022-08-10T04:10:43.847Z,17.6
2022-08-10T04:13:56.007Z,17.6
2022-08-10T04:17:08.156Z,17.6
2022-08-10T04:20:20.000Z,17.6
2022-08-10T04:23:32.456Z,17.6
2022-08-10T04:26:44.596Z,17.6
2022-08-10T04:29:56.749Z,17.6
2022-08-10T04:33:07.928Z,17.5
2022-08-10T04:36:19.100Z,17.5
2022-08-10T04:39:31.247Z,17.5
2022-08-10T04:42:42.421Z,17.5
2022-08-10T04:45:53.591Z,17.5
2022-08-10T04:49:05.734Z,17.6
2022-08-10T04:52:17.894Z,17.6
2022-08-10T04:55:30.039Z,17.6
2022-08-10T04:58:42.186Z,17.6
2022-08-10T05:01:54.338Z,17.7
2022-08-10T05:05:06.497Z,17.7
2022-08-10T05:08:18.635Z,17.8
2022-08-10T05:11:30.781Z,17.8
2022-08-10T05:14:42.949Z,17.9
2022-08-10T05:17:55.087Z,17.9
2022-08-10T05:21:07.240Z,17.9
2022-08-10T05:24:19.392Z,18
2022-08-10T05:27:30.553Z,18
2022-08-10T05:30:42.712Z,18
2022-08-10T05:33:54.855Z,18.1
2022-08-10T05:37:07.015Z,18.1
2022-08-10T05:40:19.160Z,18.1
2022-08-10T05:43:31.310Z,18.2
2022-08-10T05:46:43.454Z,18.2
2022-08-10T05:49:54.637Z,18.3
2022-08-10T05:53:05.790Z,18.3
2022-08-10T05:56:16.972Z,18.4
2022-08-10T05:59:28.132Z,18.5
2022-08-10T06:02:40.299Z,18.5
2022-08-10T06:05:52.439Z,18.6
2022-08-10T06:09:04.594Z,18.6
2022-08-10T06:12:16.734Z,18.7
2022-08-10T06:15:28.887Z,18.8
2022-08-10T06:18:41.047Z,18.8
2022-08-10T06:21:53.195Z,18.9
2022-08-10T06:25:05.357Z,18.9
2022-08-10T06:28:17.502Z,19
2022-08-10T06:31:29.638Z,19
2022-08-10T06:34:41.801Z,19.1
2022-08-10T06:37:53.941Z,19.1
2022-08-10T06:41:05.111Z,19.1
2022-08-10T06:44:17.259Z,19.1
2022-08-10T06:47:29.422Z,19.2
2022-08-10T06:50:41.561Z,19.2
2022-08-10T06:53:53.724Z,19.3
2022-08-10T06:57:05.856Z,19.3
2022-08-10T07:00:18.026Z,19.4
2022-08-10T07:03:29.183Z,19.4
2022-08-10T07:06:40.370Z,19.4
2022-08-10T07:09:51.529Z,19.5
2022-08-10T07:13:02.703Z,19.5
2022-08-10T07:16:13.877Z,19.5
2022-08-10T07:19:25.048Z,19.6
2022-08-10T07:22:36.227Z,19.7
2022-08-10T07:25:48.000Z,19.7
2022-08-10T07:29:00.525Z,19.7
2022-08-10T07:32:12.673Z,19.8
2022-08-10T07:35:24.815Z,19.8
2022-08-10T07:38:36.979Z,19.9
2022-08-10T07:41:49.113Z,19.9
2022-08-10T07:45:01.267Z,20
2022-08-10T07:48:13.416Z,20
2022-08-10T07:51:25.575Z,20.1
2022-08-10T07:54:37.719Z,20.2
2022-08-10T07:57:49.871Z,20.3
2022-08-10T08:01:02.034Z,20.3
2022-08-10T08:04:13.194Z,20.4
2022-08-10T08:07:25.339Z,20.4
2022-08-10T08:10:37.496Z,20.4
2022-08-10T08:13:49.649Z,20.5
2022-08-10T08:17:01.809Z,20.6
2022-08-10T08:20:13.957Z,20.6
2022-08-10T08:23:25.135Z,20.7
2022-08-10T08:26:36.300Z,20.8
2022-08-10T08:29:48.448Z,20.9
2022-08-10T08:33:00.598Z,20.9
2022-08-10T08:36:12.750Z,20.9
2022-08-10T08:39:24.900Z,21
2022-08-10T08:42:37.063Z,21
2022-08-10T08:45:49.197Z,21
2022-08-10T08:49:01.360Z,21
2022-08-10T08:52:13.509Z,21.1
2022-08-10T08:55:25.656Z,21.2
2022-08-10T08:58:37.805Z,21.2
2022-08-10T09:01:49.961Z,21.2
2022-08-10T09:05:02.108Z,21.2
2022-08-10T09:08:13.269Z,21.2
2022-08-10T09:11:25.423Z,21.2
2022-08-10T09:14:37.579Z,21.2
2022-08-10T09:17:49.733Z,21.3
2022-08-10T09:21:01.874Z,21.4
2022-08-10T09:24:14.042Z,21.4
2022-08-10T09:27:26.189Z,21.5
2022-08-10T09:30:37.357Z,21.6
2022-08-10T09:33:48.533Z,21.6
2022-08-10T09:36:59.716Z,21.6
2022-08-10T09:40:10.871Z,21.7
2022-08-10T09:43:22.045Z,21.8
2022-08-10T09:46:33.227Z,21.9
2022-08-10T09:49:45.372Z,21.9
2022-08-10T09:52:57.522Z,21.9
2022-08-10T09:56:09.684Z,22
2022-08-10T09:59:21.849Z,22
2022-08-10T10:02:33.993Z,22.1
2022-08-10T10:05:46.144Z,22.1
2022-08-10T10:08:58.293Z,22.2
2022-08-10T10:12:10.439Z,22.2
2022-08-10T10:15:22.592Z,22.2
2022-08-10T10:18:34.751Z,22.2
2022-08-10T10:21:46.914Z,22.2
2022-08-10T10:24:59.057Z,22.2
2022-08-10T10:28:10.223Z,22.3
2022-08-10T10:31:22.383Z,22.4
2022-08-10T10:34:34.522Z,22.7
2022-08-10T10:37:46.674Z,22.7
2022-08-10T10:40:58.839Z,22.7
2022-08-10T10:44:10.991Z,22.7
2022-08-10T10:47:23.131Z,22.6
2022-08-10T10:50:34.317Z,22.6
2022-08-10T10:53:45.481Z,22.6
2022-08-10T10:56:57.640Z,22.6
2022-08-10T11:00:08.816Z,22.6
2022-08-10T11:03:19.986Z,22.6
2022-08-10T11:06:32.139Z,22.7
2022-08-10T11:09:44.289Z,22.8
2022-08-10T11:12:56.430Z,22.8
2022-08-10T11:16:08.595Z,22.9
2022-08-10T11:19:20.745Z,22.9
2022-08-10T11:22:32.878Z,23
2022-08-10T11:25:45.031Z,22.9
2022-08-10T11:28:57.198Z,22.9
2022-08-10T11:32:09.354Z,22.9
2022-08-10T11:35:21.486Z,23
2022-08-10T11:38:33.654Z,23
2022-08-10T11:41:45.795Z,23.1
2022-08-10T11:44:56.972Z,23.3
2022-08-10T11:48:09.124Z,23.4
2022-08-10T11:51:21.263Z,23.5
2022-08-10T11:54:33.426Z,23.6
2022-08-10T11:57:45.564Z,23.6
2022-08-10T12:00:57.714Z,23.7
2022-08-10T12:04:09.877Z,23.7
2022-08-10T12:07:21.055Z,23.7
2022-08-10T12:10:32.217Z,23.9
2022-08-10T12:13:43.392Z,23.9
2022-08-10T12:16:54.561Z,24
2022-08-10T12:20:06.710Z,24
2022-08-10T12:23:18.872Z,24.2
2022-08-10T12:26:31.014Z,24.3
2022-08-10T12:29:43.181Z,24.3
2022-08-10T12:32:55.332Z,24.5
2022-08-10T12:36:07.484Z,24.6
2022-08-10T12:39:19.618Z,24.6
2022-08-10T12:42:31.782Z,24.7
2022-08-10T12:45:43.923Z,24.7
2022-08-10T12:48:56.091Z,24.9
2022-08-10T12:52:08.244Z,25
2022-08-10T12:55:20.392Z,25.1
2022-08-10T12:58:31.552Z,25.1
2022-08-10T13:01:43.697Z,25.2
2022-08-10T13:08:08.021Z,25.3
2022-08-10T13:11:20.159Z,25.4
2022-08-10T13:14:32.308Z,25.5
2022-08-10T13:17:44.461Z,25.6
2022-08-10T13:20:56.628Z,25.7
2022-08-10T13:24:07.801Z,25.8
2022-08-10T13:27:18.969Z,26
2022-08-10T13:30:31.115Z,26.1
2022-08-10T13:33:43.270Z,26.2
2022-08-10T13:36:55.424Z,26.4
2022-08-10T13:40:07.567Z,26.6
2022-08-10T13:43:19.716Z,26.7
2022-08-10T13:46:31.872Z,26.9
2022-08-10T13:49:44.035Z,27
2022-08-10T13:52:56.181Z,27.2
2022-08-10T13:56:08.336Z,27.4
2022-08-10T13:59:20.478Z,27.6
2022-08-10T14:02:32.636Z,27.8
2022-08-10T14:05:44.783Z,27.8
2022-08-10T14:08:55.955Z,27.9
2022-08-10T14:12:08.103Z,28
2022-08-10T14:15:20.248Z,28
2022-08-10T14:18:32.407Z,28.2
2022-08-10T14:21:44.557Z,28.4
2022-08-10T14:24:56.710Z,28.5
2022-08-10T14:28:08.858Z,28.4
2022-08-10T14:31:20.038Z,28.5
2022-08-10T14:34:31.218Z,28.4
2022-08-10T14:37:42.389Z,28.2
2022-08-10T14:40:53.554Z,28
2022-08-10T14:44:04.735Z,27.9
2022-08-10T14:47:15.903Z,27.8
2022-08-10T14:50:28.057Z,27.7
2022-08-10T14:53:40.205Z,27.7
2022-08-10T14:56:52.357Z,27.7
2022-08-10T15:00:04.522Z,27.8
2022-08-10T15:03:16.656Z,27.8
2022-08-10T15:06:28.823Z,27.9
2022-08-10T15:09:40.968Z,28
2022-08-10T15:12:53.125Z,28.1
2022-08-10T15:16:05.269Z,28.1
2022-08-10T15:22:29.578Z,28.3
2022-08-10T15:25:41.736Z,28.3
2022-08-10T15:28:52.907Z,28.4
2022-08-10T15:32:05.058Z,28.3
2022-08-10T15:35:17.210Z,28.1
2022-08-10T15:38:29.345Z,27.9
2022-08-10T15:41:41.516Z,27.8
2022-08-10T15:44:53.654Z,27.7
2022-08-10T15:48:05.802Z,27.6
2022-08-10T15:51:17.972Z,27.6
2022-08-10T15:54:29.137Z,27.5
2022-08-10T15:57:40.312Z,27.5
2022-08-10T16:00:51.496Z,27.5
2022-08-10T16:04:02.650Z,27.5
2022-08-10T16:07:14.806Z,27.5
2022-08-10T16:10:26.951Z,27.5
2022-08-10T16:13:39.111Z,27.4
2022-08-10T16:16:51.000Z,27.4
2022-08-10T16:20:03.420Z,27.4
2022-08-10T16:23:15.577Z,27.4
2022-08-10T16:26:27.728Z,27.4
2022-08-10T16:29:39.871Z,27.4
2022-08-10T16:32:52.016Z,27.4
2022-08-10T16:36:04.185Z,27.3
2022-08-10T16:39:16.332Z,27.3
2022-08-10T16:42:28.477Z,27.3
2022-08-10T16:45:39.646Z,27.3
2022-08-10T16:48:51.807Z,27.2
2022-08-10T16:52:03.950Z,27.2
2022-08-10T16:55:16.101Z,27.2
2022-08-10T16:58:28.249Z,27.1
2022-08-10T17:01:40.413Z,27.1
2022-08-10T17:04:52.562Z,27
2022-08-10T17:08:03.741Z,27
2022-08-10T17:11:14.916Z,26.9
2022-08-10T17:14:26.083Z,26.9
2022-08-10T17:17:37.258Z,26.8
2022-08-10T17:20:49.398Z,26.8
2022-08-10T17:24:01.549Z,26.8
2022-08-10T17:27:13.713Z,26.7
2022-08-10T17:30:25.849Z,26.7
2022-08-10T17:33:37.999Z,26.7
2022-08-10T17:36:50.145Z,26.6
2022-08-10T17:40:02.300Z,26.6
2022-08-10T17:43:14.459Z,26.5
2022-08-10T17:46:26.610Z,26.4
2022-08-10T17:49:38.761Z,26.4
2022-08-10T17:52:50.917Z,26.3
2022-08-10T17:56:03.062Z,26.3
2022-08-10T17:59:14.227Z,26.2
2022-08-10T18:02:26.376Z,26.1
2022-08-10T18:05:37.537Z,26.1
2022-08-10T18:08:49.705Z,26
2022-08-10T18:12:01.837Z,25.9
2022-08-10T18:15:13.992Z,25.8
2022-08-10T18:18:26.153Z,25.8
2022-08-10T18:21:37.327Z,25.7
2022-08-10T18:24:48.496Z,25.6
2022-08-10T18:27:59.676Z,25.5
2022-08-10T18:31:10.847Z,25.4
2022-08-10T18:34:22.991Z,25.3
2022-08-10T18:37:35.144Z,25.3
2022-08-10T18:40:47.281Z,25.2
2022-08-10T18:43:59.430Z,25
2022-08-10T18:47:11.593Z,24.9
2022-08-10T18:50:23.734Z,24.9
2022-08-10T18:53:35.890Z,24.8
2022-08-10T18:56:48.047Z,24.7
2022-08-10T19:00:00.180Z,24.6
2022-08-10T19:03:12.328Z,24.6
2022-08-10T19:06:24.486Z,24.5
2022-08-10T19:09:36.647Z,24.4
2022-08-10T19:12:47.801Z,24.3
2022-08-10T19:15:59.944Z,24.2
2022-08-10T19:19:12.094Z,24.2
2022-08-10T19:22:24.245Z,24.1
2022-08-10T19:25:36.408Z,24.1
2022-08-10T19:28:48.549Z,24
2022-08-10T19:32:00.710Z,23.9
2022-08-10T19:35:11.883Z,23.9
2022-08-10T19:38:23.041Z,23.8
2022-08-10T19:41:35.205Z,23.6
2022-08-10T19:44:47.355Z,23.5
2022-08-10T19:47:59.506Z,23.4
2022-08-10T19:51:11.651Z,23.3
2022-08-10T19:54:23.798Z,23.2
2022-08-10T19:57:35.965Z,23.2
2022-08-10T20:00:48.113Z,23.2
2022-08-10T20:04:00.248Z,23.2
2022-08-10T20:07:12.406Z,23
2022-08-10T20:10:24.566Z,22.9
2022-08-10T20:13:36.703Z,22.9
2022-08-10T20:16:48.852Z,22.9
2022-08-10T20:20:00.018Z,22.9
2022-08-10T20:23:12.185Z,22.9
2022-08-10T20:26:24.331Z,22.9
2022-08-10T20:29:36.476Z,22.9
2022-08-10T20:32:48.619Z,22.9
2022-08-10T20:36:00.789Z,22.9
2022-08-10T20:39:12.931Z,22.9
2022-08-10T20:42:24.100Z,22.8
2022-08-10T20:45:35.284Z,22.8
2022-08-10T20:48:47.434Z,22.8
2022-08-10T20:51:59.578Z,22.7
2022-08-10T20:55:11.715Z,22.7
2022-08-10T20:58:23.876Z,22.7
2022-08-10T21:01:36.016Z,22.7
2022-08-10T21:04:48.180Z,22.7
2022-08-10T21:08:00.330Z,22.7
2022-08-10T21:11:12.468Z,22.7
2022-08-10T21:14:24.632Z,22.7
2022-08-10T21:17:36.770Z,22.6
2022-08-10T21:20:48.931Z,22.6
2022-08-10T21:24:01.078Z,22.6
2022-08-10T21:27:12.247Z,22.6
2022-08-10T21:30:24.400Z,22.6
2022-08-10T21:36:48.692Z,22.6
2022-08-10T21:40:00.844Z,22.6
2022-08-10T21:43:13.005Z,22.5
2022-08-10T21:46:25.146Z,22.5
2022-08-10T21:49:37.294Z,22.5
2022-08-10T21:52:48.482Z,22.5
2022-08-10T21:55:59.632Z,22.4
2022-08-10T21:59:10.821Z,22.4
2022-08-10T22:02:21.985Z,22.4
2022-08-10T22:05:34.139Z,22.3
2022-08-10T22:08:46.278Z,22.3
2022-08-10T22:11:58.422Z,22.2
2022-08-10T22:15:10.574Z,22.2
2022-08-10T22:18:22.723Z,22.1
2022-08-10T22:21:34.876Z,22.1
2022-08-10T22:24:47.025Z,22.1
2022-08-10T22:27:59.184Z,22.1
2022-08-10T22:31:11.329Z,22
2022-08-10T22:34:23.485Z,22
2022-08-10T22:37:35.641Z,22
2022-08-10T22:40:47.773Z,22
2022-08-10T22:43:58.957Z,21.9
2022-08-10T22:47:11.102Z,21.9
2022-08-10T22:50:23.293Z,21.8
2022-08-10T22:53:35.459Z,21.8
2022-08-10T22:56:47.599Z,21.7
2022-08-10T22:59:59.742Z,21.7
2022-08-10T23:03:11.898Z,21.6
2022-08-10T23:06:23.076Z,21.6
2022-08-10T23:09:34.247Z,21.5
2022-08-10T23:12:46.388Z,21.5
2022-08-10T23:15:58.545Z,21.5
2022-08-10T23:19:10.704Z,21.5
2022-08-10T23:22:22.836Z,21.4
2022-08-10T23:25:34.997Z,21.3
2022-08-10T23:28:47.137Z,21.3
2022-08-10T23:31:59.305Z,21.2
2022-08-10T23:35:11.454Z,21.2
2022-08-10T23:38:23.000Z,21.1
2022-08-10T23:41:35.742Z,21.1
2022-08-10T23:44:47.904Z,21.1
2022-08-10T23:48:00.043Z,21.1
2022-08-10T23:51:11.221Z,21.1
2022-08-10T23:54:23.367Z,21
2022-08-10T23:57:35.520Z,21
